sensor_id;sensor_type;location;lat;lon;timestamp;temperature;humidity
14031;DHT22;7090;49.436;8.490;2022-07-19T00:01:58;19.70;1.00
14031;DHT22;7090;49.436;8.490;2022-07-19T00:04:24;19.70;1.00
14031;DHT22;7090;49.436;8.490;2022-07-19T00:06:49;19.70;1.00
14031;DHT22;7090;49.436;8.490;2022-07-19T00:09:15;19.50;1.00
14031;DHT22;7090;49.436;8.490;2022-07-19T00:11:41;19.40;1.00
14031;DHT22;7090;49.436;8.490;2022-07-19T00:14:06;19.30;1.00
14031;DHT22;7090;49.436;8.490;2022-07-19T00:16:32;19.30;1.00
14031;DHT22;7090;49.436;8.490;2022-07-19T00:18:58;19.10;1.00
14031;DHT22;7090;49.436;8.490;2022-07-19T00:21:23;19.50;1.00
14031;DHT22;7090;49.436;8.490;2022-07-19T00:23:49;19.60;1.00
14031;DHT22;7090;49.436;8.490;2022-07-19T00:26:15;19.60;1.00
14031;DHT22;7090;49.436;8.490;2022-07-19T00:28:40;19.70;1.00
14031;DHT22;7090;49.436;8.490;2022-07-19T00:31:06;19.50;1.00
14031;DHT22;7090;49.436;8.490;2022-07-19T00:33:31;19.50;1.00
14031;DHT22;7090;49.436;8.490;2022-07-19T00:35:57;19.80;1.00
14031;DHT22;7090;49.436;8.490;2022-07-19T00:38:22;19.80;1.00
14031;DHT22;7090;49.436;8.490;2022-07-19T00:40:48;20.00;1.00
14031;DHT22;7090;49.436;8.490;2022-07-19T00:43:14;19.90;1.00
14031;DHT22;7090;49.436;8.490;2022-07-19T00:45:39;19.70;1.80
14031;DHT22;7090;49.436;8.490;2022-07-19T00:48:05;19.50;46.80
14031;DHT22;7090;49.436;8.490;2022-07-19T00:50:32;19.20;86.90
14031;DHT22;7090;49.436;8.490;2022-07-19T00:53:00;19.10;99.90
14031;DHT22;7090;49.436;8.490;2022-07-19T00:55:31;18.90;99.90
14031;DHT22;7090;49.436;8.490;2022-07-19T00:57:58;18.80;99.90
14031;DHT22;7090;49.436;8.490;2022-07-19T01:00:24;18.70;99.90
14031;DHT22;7090;49.436;8.490;2022-07-19T01:02:51;18.60;99.90
14031;DHT22;7090;49.436;8.490;2022-07-19T01:05:18;18.50;99.90
14031;DHT22;7090;49.436;8.490;2022-07-19T01:07:43;18.70;99.90
14031;DHT22;7090;49.436;8.490;2022-07-19T01:10:11;18.60;99.90
14031;DHT22;7090;49.436;8.490;2022-07-19T01:12:37;18.40;99.90
14031;DHT22;7090;49.436;8.490;2022-07-19T01:15:21;18.30;99.90
14031;DHT22;7090;49.436;8.490;2022-07-19T01:17:48;18.10;99.90
14031;DHT22;7090;49.436;8.490;2022-07-19T01:20:15;18.00;99.90
14031;DHT22;7090;49.436;8.490;2022-07-19T01:22:44;18.10;99.90
14031;DHT22;7090;49.436;8.490;2022-07-19T01:25:10;18.30;99.90
14031;DHT22;7090;49.436;8.490;2022-07-19T01:27:44;18.30;99.90
14031;DHT22;7090;49.436;8.490;2022-07-19T01:30:14;18.60;99.90
14031;DHT22;7090;49.436;8.490;2022-07-19T01:32:40;18.60;99.90
14031;DHT22;7090;49.436;8.490;2022-07-19T01:35:06;18.80;99.90
14031;DHT22;7090;49.436;8.490;2022-07-19T01:37:33;18.90;99.90
14031;DHT22;7090;49.436;8.490;2022-07-19T01:39:59;19.00;99.90
14031;DHT22;7090;49.436;8.490;2022-07-19T01:42:24;18.80;27.00
14031;DHT22;7090;49.436;8.490;2022-07-19T01:44:50;18.70;99.90
14031;DHT22;7090;49.436;8.490;2022-07-19T01:47:16;18.40;99.90
14031;DHT22;7090;49.436;8.490;2022-07-19T01:49:41;18.30;99.90
14031;DHT22;7090;49.436;8.490;2022-07-19T01:52:07;18.20;99.90
14031;DHT22;7090;49.436;8.490;2022-07-19T01:54:33;18.20;99.90
14031;DHT22;7090;49.436;8.490;2022-07-19T01:56:59;18.50;99.90
14031;DHT22;7090;49.436;8.490;2022-07-19T01:59:24;18.80;99.90
14031;DHT22;7090;49.436;8.490;2022-07-19T02:01:50;18.90;99.90
14031;DHT22;7090;49.436;8.490;2022-07-19T02:04:15;18.60;99.90
14031;DHT22;7090;49.436;8.490;2022-07-19T02:06:41;18.50;99.90
14031;DHT22;7090;49.436;8.490;2022-07-19T02:09:06;18.30;99.90
14031;DHT22;7090;49.436;8.490;2022-07-19T02:11:32;18.30;99.90
14031;DHT22;7090;49.436;8.490;2022-07-19T02:14:01;18.40;99.90
14031;DHT22;7090;49.436;8.490;2022-07-19T02:16:27;18.30;99.90
14031;DHT22;7090;49.436;8.490;2022-07-19T02:18:53;18.40;99.90
14031;DHT22;7090;49.436;8.490;2022-07-19T02:21:18;18.40;99.90
14031;DHT22;7090;49.436;8.490;2022-07-19T02:23:44;18.40;99.90
14031;DHT22;7090;49.436;8.490;2022-07-19T02:26:10;18.10;99.90
14031;DHT22;7090;49.436;8.490;2022-07-19T02:28:35;18.00;99.90
14031;DHT22;7090;49.436;8.490;2022-07-19T02:31:01;17.90;99.90
14031;DHT22;7090;49.436;8.490;2022-07-19T02:33:27;17.70;99.90
14031;DHT22;7090;49.436;8.490;2022-07-19T02:35:52;17.60;99.90
14031;DHT22;7090;49.436;8.490;2022-07-19T02:38:18;17.40;99.90
14031;DHT22;7090;49.436;8.490;2022-07-19T02:40:43;17.30;99.90
14031;DHT22;7090;49.436;8.490;2022-07-19T02:43:09;17.30;99.90
14031;DHT22;7090;49.436;8.490;2022-07-19T02:45:35;17.20;99.90
14031;DHT22;7090;49.436;8.490;2022-07-19T02:48:00;17.10;99.90
14031;DHT22;7090;49.436;8.490;2022-07-19T02:50:28;17.00;99.90
14031;DHT22;7090;49.436;8.490;2022-07-19T02:52:53;16.90;99.90
14031;DHT22;7090;49.436;8.490;2022-07-19T02:55:19;16.90;99.90
14031;DHT22;7090;49.436;8.490;2022-07-19T02:57:45;16.90;99.90
14031;DHT22;7090;49.436;8.490;2022-07-19T03:00:10;16.90;99.90
14031;DHT22;7090;49.436;8.490;2022-07-19T03:02:38;16.90;99.90
14031;DHT22;7090;49.436;8.490;2022-07-19T03:05:04;16.80;99.90
14031;DHT22;7090;49.436;8.490;2022-07-19T03:07:30;16.70;99.90
14031;DHT22;7090;49.436;8.490;2022-07-19T03:09:56;16.60;99.90
14031;DHT22;7090;49.436;8.490;2022-07-19T03:12:21;16.60;99.90
14031;DHT22;7090;49.436;8.490;2022-07-19T03:14:47;16.60;99.90
14031;DHT22;7090;49.436;8.490;2022-07-19T03:17:12;16.60;99.90
14031;DHT22;7090;49.436;8.490;2022-07-19T03:19:38;16.60;99.90
14031;DHT22;7090;49.436;8.490;2022-07-19T03:22:04;16.50;99.90
14031;DHT22;7090;49.436;8.490;2022-07-19T03:24:29;16.50;99.90
14031;DHT22;7090;49.436;8.490;2022-07-19T03:26:55;16.50;99.90
14031;DHT22;7090;49.436;8.490;2022-07-19T03:29:21;16.50;99.90
14031;DHT22;7090;49.436;8.490;2022-07-19T03:31:46;16.60;99.90
14031;DHT22;7090;49.436;8.490;2022-07-19T03:34:12;16.40;99.90
14031;DHT22;7090;49.436;8.490;2022-07-19T03:36:37;16.40;99.90
14031;DHT22;7090;49.436;8.490;2022-07-19T03:39:03;16.60;99.90
14031;DHT22;7090;49.436;8.490;2022-07-19T03:41:29;16.90;99.90
14031;DHT22;7090;49.436;8.490;2022-07-19T03:43:55;17.50;99.90
14031;DHT22;7090;49.436;8.490;2022-07-19T03:46:20;17.80;99.90
14031;DHT22;7090;49.436;8.490;2022-07-19T03:48:47;17.80;99.90
14031;DHT22;7090;49.436;8.490;2022-07-19T03:51:13;17.90;99.90
14031;DHT22;7090;49.436;8.490;2022-07-19T03:53:39;18.00;99.90
14031;DHT22;7090;49.436;8.490;2022-07-19T03:56:05;17.80;99.90
14031;DHT22;7090;49.436;8.490;2022-07-19T03:58:30;17.50;99.90
14031;DHT22;7090;49.436;8.490;2022-07-19T04:00:56;17.40;99.90
14031;DHT22;7090;49.436;8.490;2022-07-19T04:03:22;17.10;99.90
14031;DHT22;7090;49.436;8.490;2022-07-19T04:05:48;17.00;99.90
14031;DHT22;7090;49.436;8.490;2022-07-19T04:08:13;17.00;99.90
14031;DHT22;7090;49.436;8.490;2022-07-19T04:10:40;17.00;99.90
14031;DHT22;7090;49.436;8.490;2022-07-19T04:13:06;17.30;99.90
14031;DHT22;7090;49.436;8.490;2022-07-19T04:15:32;17.60;99.90
14031;DHT22;7090;49.436;8.490;2022-07-19T04:17:57;17.90;99.90
14031;DHT22;7090;49.436;8.490;2022-07-19T04:20:23;18.20;99.90
14031;DHT22;7090;49.436;8.490;2022-07-19T04:22:49;18.50;99.90
14031;DHT22;7090;49.436;8.490;2022-07-19T04:25:14;18.70;99.90
14031;DHT22;7090;49.436;8.490;2022-07-19T04:27:40;19.10;99.90
14031;DHT22;7090;49.436;8.490;2022-07-19T04:30:06;19.00;46.10
14031;DHT22;7090;49.436;8.490;2022-07-19T04:32:33;19.20;28.10
14031;DHT22;7090;49.436;8.490;2022-07-19T04:34:59;19.90;1.00
14031;DHT22;7090;49.436;8.490;2022-07-19T04:37:25;20.50;1.00
14031;DHT22;7090;49.436;8.490;2022-07-19T04:39:51;21.10;1.00
14031;DHT22;7090;49.436;8.490;2022-07-19T04:42:17;21.50;1.00
14031;DHT22;7090;49.436;8.490;2022-07-19T04:44:43;21.70;1.00
14031;DHT22;7090;49.436;8.490;2022-07-19T04:47:08;22.20;1.00
14031;DHT22;7090;49.436;8.490;2022-07-19T04:49:34;22.90;1.00
14031;DHT22;7090;49.436;8.490;2022-07-19T04:52:00;23.30;1.00
14031;DHT22;7090;49.436;8.490;2022-07-19T04:54:26;24.00;99.90
14031;DHT22;7090;49.436;8.490;2022-07-19T04:56:51;24.30;99.90
14031;DHT22;7090;49.436;8.490;2022-07-19T04:59:17;24.60;99.90
14031;DHT22;7090;49.436;8.490;2022-07-19T05:01:43;25.20;99.90
14031;DHT22;7090;49.436;8.490;2022-07-19T05:04:08;25.90;99.90
14031;DHT22;7090;49.436;8.490;2022-07-19T05:06:34;26.30;99.90
14031;DHT22;7090;49.436;8.490;2022-07-19T05:09:00;26.80;99.90
14031;DHT22;7090;49.436;8.490;2022-07-19T05:11:26;27.10;99.90
14031;DHT22;7090;49.436;8.490;2022-07-19T05:13:51;27.30;70.60
14031;DHT22;7090;49.436;8.490;2022-07-19T05:16:17;26.70;1.00
14031;DHT22;7090;49.436;8.490;2022-07-19T05:18:42;25.60;1.00
14031;DHT22;7090;49.436;8.490;2022-07-19T05:21:08;25.20;1.00
14031;DHT22;7090;49.436;8.490;2022-07-19T05:23:34;24.70;1.00
14031;DHT22;7090;49.436;8.490;2022-07-19T05:25:59;25.60;1.00
14031;DHT22;7090;49.436;8.490;2022-07-19T05:28:25;26.50;1.00
14031;DHT22;7090;49.436;8.490;2022-07-19T05:30:50;26.80;99.90
14031;DHT22;7090;49.436;8.490;2022-07-19T05:33:16;26.60;1.00
14031;DHT22;7090;49.436;8.490;2022-07-19T05:35:42;26.60;1.00
14031;DHT22;7090;49.436;8.490;2022-07-19T05:38:08;26.40;1.00
14031;DHT22;7090;49.436;8.490;2022-07-19T05:40:33;25.70;1.00
14031;DHT22;7090;49.436;8.490;2022-07-19T05:42:59;25.80;1.00
14031;DHT22;7090;49.436;8.490;2022-07-19T05:45:26;26.40;99.90
14031;DHT22;7090;49.436;8.490;2022-07-19T05:47:52;26.80;99.90
14031;DHT22;7090;49.436;8.490;2022-07-19T05:50:17;27.10;99.90
14031;DHT22;7090;49.436;8.490;2022-07-19T05:52:43;27.50;1.00
14031;DHT22;7090;49.436;8.490;2022-07-19T05:55:09;27.60;1.00
14031;DHT22;7090;49.436;8.490;2022-07-19T05:57:34;27.80;1.00
14031;DHT22;7090;49.436;8.490;2022-07-19T06:00:00;28.50;1.00
14031;DHT22;7090;49.436;8.490;2022-07-19T06:02:26;29.20;99.90
14031;DHT22;7090;49.436;8.490;2022-07-19T06:04:51;29.70;99.90
14031;DHT22;7090;49.436;8.490;2022-07-19T06:07:17;29.30;99.90
14031;DHT22;7090;49.436;8.490;2022-07-19T06:09:43;29.60;1.00
14031;DHT22;7090;49.436;8.490;2022-07-19T06:12:08;29.00;1.00
14031;DHT22;7090;49.436;8.490;2022-07-19T06:14:34;29.00;1.00
14031;DHT22;7090;49.436;8.490;2022-07-19T06:16:59;29.90;99.90
14031;DHT22;7090;49.436;8.490;2022-07-19T06:19:25;30.50;1.00
14031;DHT22;7090;49.436;8.490;2022-07-19T06:21:52;30.70;1.00
14031;DHT22;7090;49.436;8.490;2022-07-19T06:24:18;31.10;1.00
14031;DHT22;7090;49.436;8.490;2022-07-19T06:26:44;31.30;1.00
14031;DHT22;7090;49.436;8.490;2022-07-19T06:29:09;31.40;99.90
14031;DHT22;7090;49.436;8.490;2022-07-19T06:31:35;31.90;99.90
14031;DHT22;7090;49.436;8.490;2022-07-19T06:34:01;32.30;66.40
14031;DHT22;7090;49.436;8.490;2022-07-19T06:36:26;31.80;1.00
14031;DHT22;7090;49.436;8.490;2022-07-19T06:38:52;31.90;1.00
14031;DHT22;7090;49.436;8.490;2022-07-19T06:41:18;32.30;1.00
14031;DHT22;7090;49.436;8.490;2022-07-19T06:43:44;31.90;60.60
14031;DHT22;7090;49.436;8.490;2022-07-19T06:46:10;31.70;99.90
14031;DHT22;7090;49.436;8.490;2022-07-19T06:48:36;31.10;99.90
14031;DHT22;7090;49.436;8.490;2022-07-19T06:51:02;30.50;1.00
14031;DHT22;7090;49.436;8.490;2022-07-19T06:53:28;30.70;99.90
14031;DHT22;7090;49.436;8.490;2022-07-19T06:55:53;31.40;1.00
14031;DHT22;7090;49.436;8.490;2022-07-19T06:58:19;31.10;1.00
14031;DHT22;7090;49.436;8.490;2022-07-19T07:00:45;31.20;60.20
14031;DHT22;7090;49.436;8.490;2022-07-19T07:03:11;31.90;1.00
14031;DHT22;7090;49.436;8.490;2022-07-19T07:05:36;31.80;1.00
14031;DHT22;7090;49.436;8.490;2022-07-19T07:08:03;32.10;1.00
14031;DHT22;7090;49.436;8.490;2022-07-19T07:10:28;32.70;1.00
14031;DHT22;7090;49.436;8.490;2022-07-19T07:12:54;32.50;1.00
14031;DHT22;7090;49.436;8.490;2022-07-19T07:15:20;33.00;1.00
14031;DHT22;7090;49.436;8.490;2022-07-19T07:17:46;32.70;1.00
14031;DHT22;7090;49.436;8.490;2022-07-19T07:20:11;32.90;1.00
14031;DHT22;7090;49.436;8.490;2022-07-19T07:22:38;32.80;1.00
14031;DHT22;7090;49.436;8.490;2022-07-19T07:25:04;33.00;1.00
14031;DHT22;7090;49.436;8.490;2022-07-19T07:27:30;33.10;1.00
14031;DHT22;7090;49.436;8.490;2022-07-19T07:29:56;33.40;99.90
14031;DHT22;7090;49.436;8.490;2022-07-19T07:32:22;33.30;99.90
14031;DHT22;7090;49.436;8.490;2022-07-19T07:34:47;33.50;99.90
14031;DHT22;7090;49.436;8.490;2022-07-19T07:37:13;33.30;8.90
14031;DHT22;7090;49.436;8.490;2022-07-19T07:39:39;33.60;1.00
14031;DHT22;7090;49.436;8.490;2022-07-19T07:42:05;33.70;1.00
14031;DHT22;7090;49.436;8.490;2022-07-19T07:44:31;33.70;1.00
14031;DHT22;7090;49.436;8.490;2022-07-19T07:46:57;34.10;1.00
14031;DHT22;7090;49.436;8.490;2022-07-19T07:49:22;34.10;1.00
14031;DHT22;7090;49.436;8.490;2022-07-19T07:51:48;33.80;1.00
14031;DHT22;7090;49.436;8.490;2022-07-19T07:54:14;33.70;1.00
14031;DHT22;7090;49.436;8.490;2022-07-19T07:56:40;33.70;1.00
14031;DHT22;7090;49.436;8.490;2022-07-19T07:59:05;33.60;1.00
14031;DHT22;7090;49.436;8.490;2022-07-19T08:01:31;33.80;1.00
14031;DHT22;7090;49.436;8.490;2022-07-19T08:03:57;33.80;1.00
14031;DHT22;7090;49.436;8.490;2022-07-19T08:06:23;34.10;1.00
14031;DHT22;7090;49.436;8.490;2022-07-19T08:08:48;34.20;1.00
14031;DHT22;7090;49.436;8.490;2022-07-19T08:11:14;34.80;1.00
14031;DHT22;7090;49.436;8.490;2022-07-19T08:13:40;35.00;1.00
14031;DHT22;7090;49.436;8.490;2022-07-19T08:16:06;34.50;1.00
14031;DHT22;7090;49.436;8.490;2022-07-19T08:18:32;34.50;1.00
14031;DHT22;7090;49.436;8.490;2022-07-19T08:20:58;35.00;1.00
14031;DHT22;7090;49.436;8.490;2022-07-19T08:23:24;35.00;1.00
14031;DHT22;7090;49.436;8.490;2022-07-19T08:25:49;35.00;1.00
14031;DHT22;7090;49.436;8.490;2022-07-19T08:28:15;34.60;1.00
14031;DHT22;7090;49.436;8.490;2022-07-19T08:30:40;34.80;1.00
14031;DHT22;7090;49.436;8.490;2022-07-19T08:33:06;35.60;1.00
14031;DHT22;7090;49.436;8.490;2022-07-19T08:35:34;35.50;1.00
14031;DHT22;7090;49.436;8.490;2022-07-19T08:38:00;35.40;1.00
14031;DHT22;7090;49.436;8.490;2022-07-19T08:40:26;35.90;1.00
14031;DHT22;7090;49.436;8.490;2022-07-19T08:42:53;36.10;1.00
14031;DHT22;7090;49.436;8.490;2022-07-19T08:45:22;36.40;1.00
14031;DHT22;7090;49.436;8.490;2022-07-19T08:47:49;36.90;1.00
14031;DHT22;7090;49.436;8.490;2022-07-19T08:50:15;36.90;1.00
14031;DHT22;7090;49.436;8.490;2022-07-19T08:52:41;36.60;1.00
14031;DHT22;7090;49.436;8.490;2022-07-19T08:55:08;36.40;1.00
14031;DHT22;7090;49.436;8.490;2022-07-19T08:57:34;36.70;1.00
14031;DHT22;7090;49.436;8.490;2022-07-19T09:00:18;36.40;99.90
14031;DHT22;7090;49.436;8.490;2022-07-19T09:03:10;35.80;99.90
14031;DHT22;7090;49.436;8.490;2022-07-19T09:05:36;35.10;99.90
14031;DHT22;7090;49.436;8.490;2022-07-19T09:08:17;35.70;99.90
14031;DHT22;7090;49.436;8.490;2022-07-19T09:10:45;34.70;99.90
14031;DHT22;7090;49.436;8.490;2022-07-19T09:13:32;34.10;99.90
14031;DHT22;7090;49.436;8.490;2022-07-19T09:15:58;33.90;99.90
14031;DHT22;7090;49.436;8.490;2022-07-19T09:18:26;34.10;99.90
14031;DHT22;7090;49.436;8.490;2022-07-19T09:20:54;35.50;99.90
14031;DHT22;7090;49.436;8.490;2022-07-19T09:23:20;35.00;99.90
14031;DHT22;7090;49.436;8.490;2022-07-19T09:25:57;34.50;99.90
14031;DHT22;7090;49.436;8.490;2022-07-19T09:28:26;34.20;99.90
14031;DHT22;7090;49.436;8.490;2022-07-19T09:30:54;35.10;99.90
14031;DHT22;7090;49.436;8.490;2022-07-19T09:33:27;34.70;99.90
14031;DHT22;7090;49.436;8.490;2022-07-19T09:36:00;34.40;99.90
14031;DHT22;7090;49.436;8.490;2022-07-19T09:38:31;33.90;99.90
14031;DHT22;7090;49.436;8.490;2022-07-19T09:51:31;34.20;99.90
14031;DHT22;7090;49.436;8.490;2022-07-19T09:53:58;34.40;99.90
14031;DHT22;7090;49.436;8.490;2022-07-19T09:56:23;34.30;99.90
14031;DHT22;7090;49.436;8.490;2022-07-19T09:58:50;34.40;99.90
14031;DHT22;7090;49.436;8.490;2022-07-19T10:01:16;34.30;99.90
14031;DHT22;7090;49.436;8.490;2022-07-19T10:03:43;33.90;99.90
14031;DHT22;7090;49.436;8.490;2022-07-19T10:06:09;34.20;99.90
14031;DHT22;7090;49.436;8.490;2022-07-19T10:08:35;34.80;99.90
14031;DHT22;7090;49.436;8.490;2022-07-19T10:11:01;34.80;99.90
14031;DHT22;7090;49.436;8.490;2022-07-19T10:13:27;34.80;99.90
14031;DHT22;7090;49.436;8.490;2022-07-19T10:15:54;34.80;99.90
14031;DHT22;7090;49.436;8.490;2022-07-19T10:18:25;34.90;99.90
14031;DHT22;7090;49.436;8.490;2022-07-19T10:20:55;35.30;99.90
14031;DHT22;7090;49.436;8.490;2022-07-19T10:23:29;35.00;99.90
14031;DHT22;7090;49.436;8.490;2022-07-19T10:25:56;35.50;99.90
14031;DHT22;7090;49.436;8.490;2022-07-19T10:28:40;35.20;99.90
14031;DHT22;7090;49.436;8.490;2022-07-19T10:31:27;34.90;99.90
14031;DHT22;7090;49.436;8.490;2022-07-19T10:34:02;34.30;99.90
14031;DHT22;7090;49.436;8.490;2022-07-19T10:36:45;34.10;30.40
14031;DHT22;7090;49.436;8.490;2022-07-19T10:39:19;34.40;2.00
14031;DHT22;7090;49.436;8.490;2022-07-19T10:42:22;34.10;1.60
14031;DHT22;7090;49.436;8.490;2022-07-19T10:45:12;34.50;1.00
14031;DHT22;7090;49.436;8.490;2022-07-19T10:50:12;35.40;45.60
14031;DHT22;7090;49.436;8.490;2022-07-19T10:52:43;34.60;1.00
14031;DHT22;7090;49.436;8.490;2022-07-19T10:57:45;35.20;1.00
14031;DHT22;7090;49.436;8.490;2022-07-19T11:02:48;35.00;99.90
14031;DHT22;7090;49.436;8.490;2022-07-19T11:05:24;34.80;1.00
14031;DHT22;7090;49.436;8.490;2022-07-19T11:07:52;34.40;1.00
14031;DHT22;7090;49.436;8.490;2022-07-19T11:10:36;35.10;1.00
14031;DHT22;7090;49.436;8.490;2022-07-19T11:13:01;35.10;1.00
14031;DHT22;7090;49.436;8.490;2022-07-19T11:15:27;34.80;1.00
14031;DHT22;7090;49.436;8.490;2022-07-19T11:17:57;34.80;1.00
14031;DHT22;7090;49.436;8.490;2022-07-19T11:20:34;34.90;1.00
14031;DHT22;7090;49.436;8.490;2022-07-19T11:23:01;35.20;1.00
14031;DHT22;7090;49.436;8.490;2022-07-19T11:25:37;35.40;1.00
14031;DHT22;7090;49.436;8.490;2022-07-19T11:28:04;35.40;1.00
14031;DHT22;7090;49.436;8.490;2022-07-19T11:30:32;35.00;1.00
14031;DHT22;7090;49.436;8.490;2022-07-19T11:33:02;35.20;1.00
14031;DHT22;7090;49.436;8.490;2022-07-19T11:35:30;35.40;1.00
14031;DHT22;7090;49.436;8.490;2022-07-19T11:37:57;35.80;1.00
14031;DHT22;7090;49.436;8.490;2022-07-19T11:40:25;35.80;1.00
14031;DHT22;7090;49.436;8.490;2022-07-19T11:42:56;36.00;1.00
14031;DHT22;7090;49.436;8.490;2022-07-19T11:45:25;35.70;1.00
14031;DHT22;7090;49.436;8.490;2022-07-19T11:47:52;35.60;1.00
14031;DHT22;7090;49.436;8.490;2022-07-19T11:50:20;35.10;1.00
14031;DHT22;7090;49.436;8.490;2022-07-19T11:52:53;35.80;1.00
14031;DHT22;7090;49.436;8.490;2022-07-19T11:55:25;36.40;1.00
14031;DHT22;7090;49.436;8.490;2022-07-19T11:57:52;36.20;1.00
14031;DHT22;7090;49.436;8.490;2022-07-19T12:00:20;36.20;1.00
14031;DHT22;7090;49.436;8.490;2022-07-19T12:03:01;35.80;1.00
14031;DHT22;7090;49.436;8.490;2022-07-19T12:05:36;36.30;1.00
14031;DHT22;7090;49.436;8.490;2022-07-19T12:08:08;36.40;1.00
14031;DHT22;7090;49.436;8.490;2022-07-19T12:10:44;36.40;1.00
14031;DHT22;7090;49.436;8.490;2022-07-19T12:13:15;36.80;1.00
14031;DHT22;7090;49.436;8.490;2022-07-19T12:18:21;36.60;1.00
14031;DHT22;7090;49.436;8.490;2022-07-19T12:27:05;36.90;1.00
14031;DHT22;7090;49.436;8.490;2022-07-19T12:32:07;36.70;1.00
14031;DHT22;7090;49.436;8.490;2022-07-19T12:34:48;36.90;1.00
14031;DHT22;7090;49.436;8.490;2022-07-19T12:37:24;37.00;1.00
14031;DHT22;7090;49.436;8.490;2022-07-19T12:40:12;37.30;1.00
14031;DHT22;7090;49.436;8.490;2022-07-19T12:45:12;36.50;1.00
14031;DHT22;7090;49.436;8.490;2022-07-19T12:47:38;36.40;1.00
14031;DHT22;7090;49.436;8.490;2022-07-19T12:50:05;36.20;1.00
14031;DHT22;7090;49.436;8.490;2022-07-19T12:52:31;36.70;1.00
14031;DHT22;7090;49.436;8.490;2022-07-19T12:54:56;36.70;1.00
14031;DHT22;7090;49.436;8.490;2022-07-19T12:57:22;37.00;1.00
14031;DHT22;7090;49.436;8.490;2022-07-19T12:59:47;36.50;1.00
14031;DHT22;7090;49.436;8.490;2022-07-19T13:02:15;37.00;1.00
14031;DHT22;7090;49.436;8.490;2022-07-19T13:04:43;37.40;1.00
14031;DHT22;7090;49.436;8.490;2022-07-19T13:07:11;37.50;1.00
14031;DHT22;7090;49.436;8.490;2022-07-19T13:09:39;37.80;1.00
14031;DHT22;7090;49.436;8.490;2022-07-19T13:12:07;38.10;1.00
14031;DHT22;7090;49.436;8.490;2022-07-19T13:14:33;37.60;1.00
14031;DHT22;7090;49.436;8.490;2022-07-19T13:16:59;37.10;1.00
14031;DHT22;7090;49.436;8.490;2022-07-19T13:19:25;37.40;1.00
14031;DHT22;7090;49.436;8.490;2022-07-19T13:21:52;37.80;1.00
14031;DHT22;7090;49.436;8.490;2022-07-19T13:24:18;36.50;1.00
14031;DHT22;7090;49.436;8.490;2022-07-19T13:26:43;37.00;1.00
14031;DHT22;7090;49.436;8.490;2022-07-19T13:29:09;37.20;1.00
14031;DHT22;7090;49.436;8.490;2022-07-19T13:31:35;37.50;1.00
14031;DHT22;7090;49.436;8.490;2022-07-19T13:34:01;37.50;1.00
14031;DHT22;7090;49.436;8.490;2022-07-19T13:36:27;37.60;1.00
14031;DHT22;7090;49.436;8.490;2022-07-19T13:38:52;38.10;1.00
14031;DHT22;7090;49.436;8.490;2022-07-19T13:41:18;37.70;1.00
14031;DHT22;7090;49.436;8.490;2022-07-19T13:43:44;37.60;1.00
14031;DHT22;7090;49.436;8.490;2022-07-19T13:46:11;37.90;1.00
14031;DHT22;7090;49.436;8.490;2022-07-19T13:48:38;36.90;1.00
14031;DHT22;7090;49.436;8.490;2022-07-19T13:51:03;36.90;1.00
14031;DHT22;7090;49.436;8.490;2022-07-19T13:53:29;37.00;1.00
14031;DHT22;7090;49.436;8.490;2022-07-19T13:55:54;37.30;1.00
14031;DHT22;7090;49.436;8.490;2022-07-19T13:58:20;38.50;1.00
14031;DHT22;7090;49.436;8.490;2022-07-19T14:00:46;38.70;1.00
14031;DHT22;7090;49.436;8.490;2022-07-19T14:03:13;38.50;1.00
14031;DHT22;7090;49.436;8.490;2022-07-19T14:05:40;37.30;1.00
14031;DHT22;7090;49.436;8.490;2022-07-19T14:08:06;37.50;1.00
14031;DHT22;7090;49.436;8.490;2022-07-19T14:10:31;37.30;1.00
14031;DHT22;7090;49.436;8.490;2022-07-19T14:12:57;37.70;1.00
14031;DHT22;7090;49.436;8.490;2022-07-19T14:15:23;38.30;1.00
14031;DHT22;7090;49.436;8.490;2022-07-19T14:17:48;39.00;1.00
14031;DHT22;7090;49.436;8.490;2022-07-19T14:20:14;39.00;1.00
14031;DHT22;7090;49.436;8.490;2022-07-19T14:22:39;38.50;1.00
14031;DHT22;7090;49.436;8.490;2022-07-19T14:25:05;38.20;1.00
14031;DHT22;7090;49.436;8.490;2022-07-19T14:27:31;38.20;1.00
14031;DHT22;7090;49.436;8.490;2022-07-19T14:29:57;38.30;1.00
14031;DHT22;7090;49.436;8.490;2022-07-19T14:32:22;38.60;1.00
14031;DHT22;7090;49.436;8.490;2022-07-19T14:34:48;38.80;1.00
14031;DHT22;7090;49.436;8.490;2022-07-19T14:37:14;38.60;1.00
14031;DHT22;7090;49.436;8.490;2022-07-19T14:39:39;38.20;1.00
14031;DHT22;7090;49.436;8.490;2022-07-19T14:42:05;38.10;1.00
14031;DHT22;7090;49.436;8.490;2022-07-19T14:44:32;38.10;1.00
14031;DHT22;7090;49.436;8.490;2022-07-19T14:46:58;37.80;1.00
14031;DHT22;7090;49.436;8.490;2022-07-19T14:49:23;37.30;1.00
14031;DHT22;7090;49.436;8.490;2022-07-19T14:51:49;37.70;1.00
14031;DHT22;7090;49.436;8.490;2022-07-19T14:54:15;38.10;1.00
14031;DHT22;7090;49.436;8.490;2022-07-19T14:56:40;37.90;1.00
14031;DHT22;7090;49.436;8.490;2022-07-19T14:59:06;38.20;1.00
14031;DHT22;7090;49.436;8.490;2022-07-19T15:01:32;38.00;1.00
14031;DHT22;7090;49.436;8.490;2022-07-19T15:03:58;37.30;1.00
14031;DHT22;7090;49.436;8.490;2022-07-19T15:06:23;37.20;1.00
14031;DHT22;7090;49.436;8.490;2022-07-19T15:08:49;37.00;1.00
14031;DHT22;7090;49.436;8.490;2022-07-19T15:11:14;37.60;1.00
14031;DHT22;7090;49.436;8.490;2022-07-19T15:13:40;38.20;1.00
14031;DHT22;7090;49.436;8.490;2022-07-19T15:16:06;37.70;1.00
14031;DHT22;7090;49.436;8.490;2022-07-19T15:18:32;38.00;1.00
14031;DHT22;7090;49.436;8.490;2022-07-19T15:20:58;37.90;1.00
14031;DHT22;7090;49.436;8.490;2022-07-19T15:23:23;37.80;1.00
14031;DHT22;7090;49.436;8.490;2022-07-19T15:25:49;38.10;1.00
14031;DHT22;7090;49.436;8.490;2022-07-19T15:28:14;37.80;1.00
14031;DHT22;7090;49.436;8.490;2022-07-19T15:30:42;37.60;1.00
14031;DHT22;7090;49.436;8.490;2022-07-19T15:33:08;37.70;1.00
14031;DHT22;7090;49.436;8.490;2022-07-19T15:35:34;37.50;1.00
14031;DHT22;7090;49.436;8.490;2022-07-19T15:37:59;38.30;1.00
14031;DHT22;7090;49.436;8.490;2022-07-19T15:40:25;37.90;1.00
14031;DHT22;7090;49.436;8.490;2022-07-19T15:42:51;37.80;1.00
14031;DHT22;7090;49.436;8.490;2022-07-19T15:45:18;38.30;1.00
14031;DHT22;7090;49.436;8.490;2022-07-19T15:47:44;38.20;1.00
14031;DHT22;7090;49.436;8.490;2022-07-19T15:50:12;37.50;1.00
14031;DHT22;7090;49.436;8.490;2022-07-19T15:52:38;37.00;1.00
14031;DHT22;7090;49.436;8.490;2022-07-19T15:55:04;37.10;1.00
14031;DHT22;7090;49.436;8.490;2022-07-19T15:57:30;37.00;1.00
14031;DHT22;7090;49.436;8.490;2022-07-19T15:59:56;37.20;1.00
14031;DHT22;7090;49.436;8.490;2022-07-19T16:02:21;37.10;1.00
14031;DHT22;7090;49.436;8.490;2022-07-19T16:04:47;37.10;1.00
14031;DHT22;7090;49.436;8.490;2022-07-19T16:07:12;37.10;1.00
14031;DHT22;7090;49.436;8.490;2022-07-19T16:09:38;37.60;1.00
14031;DHT22;7090;49.436;8.490;2022-07-19T16:12:04;37.30;1.00
14031;DHT22;7090;49.436;8.490;2022-07-19T16:14:30;37.40;1.00
14031;DHT22;7090;49.436;8.490;2022-07-19T16:16:55;37.10;1.00
14031;DHT22;7090;49.436;8.490;2022-07-19T16:19:21;37.10;1.00
14031;DHT22;7090;49.436;8.490;2022-07-19T16:21:46;36.90;1.00
14031;DHT22;7090;49.436;8.490;2022-07-19T16:24:12;37.40;1.00
14031;DHT22;7090;49.436;8.490;2022-07-19T16:26:38;37.40;1.00